Time;durP1;ratioP1;P1;durP2;ratioP2;P2;SDS_P1;SDS_P2;PMS_P1;PMS_P2;Temp;Humidity;BMP_temperature;BMP_pressure;BME280_temperature;BME280_humidity;BME280_pressure;Samples;Min_cycle;Max_cycle;Signal;HPM_P1;HPM_P2
2023/04/26 00:01:56;;;;;;;;;;;;;;;12.66;43.63;100512.00;4945496;27;98409;-74
2023/04/26 00:04:23;;;;;;;;;;;;;;;12.63;43.55;100513.34;4942366;27;98418;-68
2023/04/26 00:06:49;;;;;;;;;;;;;;;12.62;43.58;100514.44;4946637;27;98295;-68
2023/04/26 00:09:18;;;;;;;;;;;;;;;12.60;43.63;100524.72;4936246;28;101502;-69
2023/04/26 00:11:43;;;;;;;;;;;;;;;12.58;43.55;100524.22;4960745;27;98215;-69
2023/04/26 00:14:12;;;;;;;;;;;;;;;12.58;43.67;100520.69;4970884;28;98343;-75
2023/04/26 00:16:38;;;;;;;;;;;;;;;12.56;43.61;100522.84;4942326;28;98175;-69
2023/04/26 00:19:05;;;;;;;;;;;;;;;12.54;43.68;100520.44;4971948;27;97965;-68
2023/04/26 00:21:31;;;;;;;;;;;;;;;12.53;43.69;100524.22;4960276;28;98223;-75
2023/04/26 00:23:58;;;;;;;;;;;;;;;12.52;43.71;100530.72;4959520;27;97954;-68
2023/04/26 00:26:24;;;;;;;;;;;;;;;12.51;43.66;100521.81;4971921;27;98173;-75
2023/04/26 00:28:51;;;;;;;;;;;;;;;12.49;43.68;100537.47;4972429;27;100300;-74
2023/04/26 00:31:17;;;;;;;;;;;;;;;12.50;43.80;100538.31;4959448;28;97974;-76
2023/04/26 00:33:44;;;;;;;;;;;;;;;12.49;43.75;100533.97;4957785;28;98423;-75
2023/04/26 00:36:11;;;;;;;;;;;;;;;12.48;43.67;100532.34;4959239;28;97912;-74
2023/04/26 00:38:37;;;;;;;;;;;;;;;12.47;43.64;100536.97;4959800;28;98155;-74
2023/04/26 00:41:04;;;;;;;;;;;;;;;12.45;43.74;100525.59;4959902;28;98030;-75
2023/04/26 00:43:31;;;;;;;;;;;;;;;12.45;43.73;100539.13;4959273;28;97881;-74
2023/04/26 00:45:57;;;;;;;;;;;;;;;12.43;43.74;100535.09;4958340;28;99443;-75
2023/04/26 00:48:25;;;;;;;;;;;;;;;12.42;43.56;100547.00;4959351;28;98175;-75
2023/04/26 00:50:53;;;;;;;;;;;;;;;12.41;43.70;100545.38;4955488;28;101882;-76
2023/04/26 00:53:20;;;;;;;;;;;;;;;12.38;43.65;100544.03;4938952;28;98108;-75
2023/04/26 00:55:48;;;;;;;;;;;;;;;12.37;43.66;100547.81;4958327;28;98390;-68
2023/04/26 00:58:14;;;;;;;;;;;;;;;12.36;43.73;100548.91;4960157;28;98691;-68
2023/04/26 01:00:40;;;;;;;;;;;;;;;12.33;43.71;100549.44;4984262;27;98597;-68
2023/04/26 01:03:07;;;;;;;;;;;;;;;12.32;43.68;100555.16;4959580;28;98509;-75
2023/04/26 01:05:35;;;;;;;;;;;;;;;12.28;43.67;100553.00;4961317;28;98359;-75
2023/04/26 01:08:03;;;;;;;;;;;;;;;12.27;43.51;100554.09;4961049;28;98183;-75
2023/04/26 01:10:32;;;;;;;;;;;;;;;12.25;43.77;100558.13;4962038;27;99480;-68
2023/04/26 01:13:00;;;;;;;;;;;;;;;12.24;43.79;100561.94;4949202;27;98095;-75
2023/04/26 01:15:29;;;;;;;;;;;;;;;12.21;43.68;100560.56;4939594;27;98585;-75
2023/04/26 01:17:59;;;;;;;;;;;;;;;12.20;43.75;100568.97;4963315;27;98317;-69
2023/04/26 01:20:25;;;;;;;;;;;;;;;12.18;43.77;100560.31;4973781;27;97984;-68
2023/04/26 01:22:52;;;;;;;;;;;;;;;12.18;43.62;100563.00;4962271;27;98441;-75
2023/04/26 01:25:20;;;;;;;;;;;;;;;12.15;43.87;100558.19;4966904;27;98531;-75
2023/04/26 01:27:46;;;;;;;;;;;;;;;12.13;43.95;100565.75;4964188;27;98553;-75
2023/04/26 01:30:13;;;;;;;;;;;;;;;12.11;43.73;100563.34;4961455;27;98024;-75
2023/04/26 01:32:39;;;;;;;;;;;;;;;12.10;43.77;100564.38;4966567;27;98349;-68
2023/04/26 01:35:06;;;;;;;;;;;;;;;12.09;43.48;100564.69;4961937;27;98845;-68
2023/04/26 01:37:33;;;;;;;;;;;;;;;12.06;43.79;100568.72;4966302;27;97895;-75
2023/04/26 01:40:00;;;;;;;;;;;;;;;12.06;43.64;100570.63;4961847;27;98011;-68
2023/04/26 01:42:26;;;;;;;;;;;;;;;12.03;43.80;100572.81;4949347;27;98328;-75
2023/04/26 01:44:52;;;;;;;;;;;;;;;12.01;43.50;100566.84;4962456;27;98270;-68
2023/04/26 01:47:19;;;;;;;;;;;;;;;12.00;43.81;100569.84;4961359;27;98371;-68
2023/04/26 01:49:45;;;;;;;;;;;;;;;11.98;43.89;100566.59;4945719;27;98336;-68
2023/04/26 01:52:11;;;;;;;;;;;;;;;11.96;43.79;100577.69;4965176;27;97992;-75
2023/04/26 01:54:38;;;;;;;;;;;;;;;11.95;43.60;100572.56;4962359;27;98408;-75
2023/04/26 01:57:10;;;;;;;;;;;;;;;11.93;43.75;100578.22;4948432;27;97958;-75
2023/04/26 01:59:37;;;;;;;;;;;;;;;11.90;43.58;100576.06;4949674;27;98481;-68
2023/04/26 02:02:04;;;;;;;;;;;;;;;11.87;43.75;100579.31;4959675;27;98216;-75
2023/04/26 02:04:30;;;;;;;;;;;;;;;11.87;43.77;100578.50;4963371;27;98030;-75
2023/04/26 02:06:57;;;;;;;;;;;;;;;11.83;43.84;100583.66;4948128;27;99745;-68
2023/04/26 02:09:24;;;;;;;;;;;;;;;11.83;43.72;100588.19;4939437;28;98158;-75
2023/04/26 02:11:50;;;;;;;;;;;;;;;11.82;43.73;100583.88;4960554;27;98321;-68
2023/04/26 02:14:17;;;;;;;;;;;;;;;11.79;43.86;100583.34;4956729;28;99648;-74
2023/04/26 02:16:43;;;;;;;;;;;;;;;11.78;43.75;100587.13;4944418;28;100025;-75
2023/04/26 02:19:10;;;;;;;;;;;;;;;11.76;43.53;100585.78;4962900;28;98188;-75
2023/04/26 02:21:56;;;;;;;;;;;;;;;11.75;43.78;100586.84;4946276;28;98095;-75
2023/04/26 02:24:24;;;;;;;;;;;;;;;11.73;43.69;100578.22;4979598;27;98293;-75
2023/04/26 02:26:53;;;;;;;;;;;;;;;11.72;43.89;100584.72;4963141;28;98497;-75
2023/04/26 02:29:20;;;;;;;;;;;;;;;11.71;43.85;100577.69;4946240;28;98014;-68
2023/04/26 02:31:47;;;;;;;;;;;;;;;11.68;43.97;100579.06;4962820;28;99250;-68
2023/04/26 02:34:13;;;;;;;;;;;;;;;11.67;43.95;100595.50;4943789;28;98025;-68
2023/04/26 02:36:40;;;;;;;;;;;;;;;11.65;43.94;100584.97;4961512;28;98172;-75
2023/04/26 02:39:06;;;;;;;;;;;;;;;11.64;43.82;100586.06;4960357;28;99790;-69
2023/04/26 02:41:32;;;;;;;;;;;;;;;11.62;43.82;100588.22;4961324;28;98224;-68
2023/04/26 02:44:00;;;;;;;;;;;;;;;11.60;43.58;100584.19;4957216;28;98104;-75
2023/04/26 02:46:26;;;;;;;;;;;;;;;11.59;43.71;100586.06;4945775;28;98136;-68
2023/04/26 02:48:53;;;;;;;;;;;;;;;11.57;43.53;100582.84;4960934;28;99536;-74
2023/04/26 02:51:20;;;;;;;;;;;;;;;11.56;43.53;100586.63;4960766;28;98085;-75
2023/04/26 02:53:46;;;;;;;;;;;;;;;11.54;43.86;100583.38;4944542;27;98015;-74
2023/04/26 02:56:12;;;;;;;;;;;;;;;11.53;43.55;100581.75;4945823;28;98057;-68
2023/04/26 02:58:39;;;;;;;;;;;;;;;11.51;43.78;100583.91;4960459;27;98166;-68
2023/04/26 03:01:07;;;;;;;;;;;;;;;11.49;43.92;100589.59;4954592;28;98206;-75
2023/04/26 03:03:35;;;;;;;;;;;;;;;11.47;43.95;100583.63;4960743;28;98151;-75
2023/04/26 03:06:03;;;;;;;;;;;;;;;11.47;43.50;100585.53;4962737;28;98072;-74
2023/04/26 03:08:29;;;;;;;;;;;;;;;11.45;43.81;100593.09;4954680;28;98067;-74
2023/04/26 03:10:55;;;;;;;;;;;;;;;11.43;44.05;100589.84;4917778;28;98080;-68
2023/04/26 03:13:24;;;;;;;;;;;;;;;11.40;43.95;100580.41;4958634;28;98195;-68
2023/04/26 03:15:52;;;;;;;;;;;;;;;11.40;43.71;100585.81;4920449;28;98309;-68
2023/04/26 03:18:18;;;;;;;;;;;;;;;11.39;43.98;100589.56;4923273;28;98476;-68
2023/04/26 03:20:48;;;;;;;;;;;;;;;11.38;43.67;100598.75;4923107;28;99391;-69
2023/04/26 03:23:15;;;;;;;;;;;;;;;11.37;43.94;100597.13;4924868;28;98162;-69
2023/04/26 03:25:41;;;;;;;;;;;;;;;11.34;43.80;100597.66;4921957;28;98003;-68
2023/04/26 03:28:09;;;;;;;;;;;;;;;11.33;43.68;100595.25;4922241;28;98986;-74
2023/04/26 03:30:35;;;;;;;;;;;;;;;11.31;43.88;100603.59;4940158;28;98057;-67
2023/04/26 03:33:02;;;;;;;;;;;;;;;11.31;43.73;100600.91;4923455;28;98337;-74
2023/04/26 03:35:29;;;;;;;;;;;;;;;11.31;43.84;100595.50;4917912;28;98231;-75
2023/04/26 03:37:55;;;;;;;;;;;;;;;11.29;43.98;100603.06;4925185;28;97955;-68
2023/04/26 03:40:23;;;;;;;;;;;;;;;11.27;44.01;100600.63;4940354;28;98841;-74
2023/04/26 03:42:50;;;;;;;;;;;;;;;11.27;43.96;100597.13;4923591;28;99848;-68
2023/04/26 03:45:17;;;;;;;;;;;;;;;11.26;43.63;100601.72;4933940;28;98417;-68
2023/04/26 03:47:43;;;;;;;;;;;;;;;11.24;43.63;100601.19;4902418;28;99985;-68
2023/04/26 03:50:10;;;;;;;;;;;;;;;11.25;43.95;100602.00;4940449;28;99335;-73
2023/04/26 03:52:40;;;;;;;;;;;;;;;11.24;43.56;100603.88;4924313;28;98038;-75
2023/04/26 03:55:08;;;;;;;;;;;;;;;11.24;43.88;100608.47;4923789;28;98017;-68
2023/04/26 03:57:35;;;;;;;;;;;;;;;11.23;43.58;100609.53;4941243;28;98010;-68
2023/04/26 04:00:01;;;;;;;;;;;;;;;11.24;43.67;100614.69;4933901;28;98210;-70
2023/04/26 04:02:27;;;;;;;;;;;;;;;11.25;43.89;100607.38;4918945;28;98006;-68
2023/04/26 04:04:54;;;;;;;;;;;;;;;11.25;43.72;100620.88;4936112;28;99513;-75
2023/04/26 04:07:20;;;;;;;;;;;;;;;11.25;43.80;100620.88;4923895;28;98281;-74
2023/04/26 04:09:46;;;;;;;;;;;;;;;11.26;43.63;100614.41;4954419;28;98663;-68
2023/04/26 04:12:13;;;;;;;;;;;;;;;11.26;43.30;100619.78;4941771;28;98487;-68
2023/04/26 04:14:39;;;;;;;;;;;;;;;11.27;43.60;100618.72;4951704;28;98558;-75
2023/04/26 04:17:07;;;;;;;;;;;;;;;11.28;43.53;100621.16;4940252;28;98448;-68
2023/04/26 04:19:33;;;;;;;;;;;;;;;11.29;43.74;100630.88;4982901;27;99623;-68
2023/04/26 04:21:59;;;;;;;;;;;;;;;11.31;43.39;100627.88;4942779;28;98273;-68
2023/04/26 04:24:29;;;;;;;;;;;;;;;11.31;43.51;100627.88;4934626;28;98681;-74
2023/04/26 04:26:57;;;;;;;;;;;;;;;11.32;43.52;100618.75;4955894;28;98512;-74
2023/04/26 04:29:23;;;;;;;;;;;;;;;11.33;43.85;100631.13;4940100;28;98159;-68
2023/04/26 04:31:50;;;;;;;;;;;;;;;11.35;43.75;100622.78;4956673;28;99093;-69
2023/04/26 04:34:16;;;;;;;;;;;;;;;11.34;43.45;100624.66;4934459;28;98308;-69
2023/04/26 04:36:43;;;;;;;;;;;;;;;11.38;43.64;100628.44;4939741;28;98475;-74
2023/04/26 04:39:14;;;;;;;;;;;;;;;11.40;43.76;100630.88;4936725;28;98256;-68
2023/04/26 04:41:46;;;;;;;;;;;;;;;11.43;43.60;100628.44;4955065;28;99393;-68
2023/04/26 04:44:19;;;;;;;;;;;;;;;11.45;43.68;100636.28;4935113;28;98312;-68
2023/04/26 04:46:46;;;;;;;;;;;;;;;11.46;43.38;100635.19;4953616;28;99314;-68
2023/04/26 04:49:13;;;;;;;;;;;;;;;11.48;43.37;100633.84;4937004;28;98114;-74
2023/04/26 04:51:40;;;;;;;;;;;;;;;11.50;43.64;100642.47;4939650;28;98053;-68
2023/04/26 04:54:13;;;;;;;;;;;;;;;11.55;43.46;100642.50;4954238;28;98970;-74
2023/04/26 04:56:41;;;;;;;;;;;;;;;11.60;43.21;100647.09;4935675;27;99740;-74
2023/04/26 04:59:08;;;;;;;;;;;;;;;11.64;43.38;100647.38;4939747;28;98434;-75
2023/04/26 05:01:36;;;;;;;;;;;;;;;11.68;43.26;100649.25;4942849;28;98140;-74
2023/04/26 05:04:05;;;;;;;;;;;;;;;11.73;43.08;100649.25;4952358;28;100477;-74
2023/04/26 05:06:32;;;;;;;;;;;;;;;11.77;43.23;100657.63;4946700;28;100320;-74
2023/04/26 05:09:00;;;;;;;;;;;;;;;11.83;43.35;100661.13;4946104;28;98184;-68
2023/04/26 05:11:28;;;;;;;;;;;;;;;11.86;43.20;100658.72;4963060;28;100588;-75
2023/04/26 05:13:54;;;;;;;;;;;;;;;11.93;43.41;100666.56;4974681;27;100026;-68
2023/04/26 05:16:21;;;;;;;;;;;;;;;11.99;43.24;100662.78;4963052;28;98136;-75
2023/04/26 05:18:48;;;;;;;;;;;;;;;12.04;43.12;100666.28;4963412;27;98248;-68
2023/04/26 05:21:15;;;;;;;;;;;;;;;12.10;43.14;100661.66;4960234;28;98412;-75
2023/04/26 05:23:42;;;;;;;;;;;;;;;12.18;43.09;100657.59;4957600;28;99559;-74
2023/04/26 05:26:13;;;;;;;;;;;;;;;12.25;42.98;100668.94;4974459;27;98077;-68
2023/04/26 05:28:40;;;;;;;;;;;;;;;12.34;42.96;100674.59;4963156;27;98585;-74
2023/04/26 05:31:07;;;;;;;;;;;;;;;12.42;42.94;100674.88;4940066;28;98014;-75
2023/04/26 05:33:34;;;;;;;;;;;;;;;12.54;42.78;100674.56;4942134;28;98268;-69
2023/04/26 05:36:01;;;;;;;;;;;;;;;12.65;42.77;100672.63;4947520;28;100647;-68
2023/04/26 05:38:28;;;;;;;;;;;;;;;12.77;42.62;100682.06;4945317;28;97982;-74
2023/04/26 05:40:55;;;;;;;;;;;;;;;12.92;42.63;100681.16;4963803;27;98119;-68
2023/04/26 05:43:21;;;;;;;;;;;;;;;13.09;42.69;100680.03;4956330;28;99972;-74
2023/04/26 05:45:53;;;;;;;;;;;;;;;13.22;42.43;100684.81;4945369;27;98168;-69
2023/04/26 05:48:23;;;;;;;;;;;;;;;13.35;42.19;100678.78;4970010;27;99238;-75
2023/04/26 05:50:51;;;;;;;;;;;;;;;13.51;42.40;100674.09;4946334;28;98076;-75
2023/04/26 05:53:18;;;;;;;;;;;;;;;13.67;42.53;100682.91;4940643;27;98402;-75
2023/04/26 05:55:45;;;;;;;;;;;;;;;13.84;42.25;100687.94;4960435;27;100600;-69
2023/04/26 05:58:11;;;;;;;;;;;;;;;14.01;42.33;100682.91;4956396;27;98314;-75
2023/04/26 06:00:38;;;;;;;;;;;;;;;14.20;42.26;100686.53;4964385;28;98137;-69
2023/04/26 06:03:05;;;;;;;;;;;;;;;14.23;42.21;100682.44;4972590;27;98827;-75
2023/04/26 06:05:31;;;;;;;;;;;;;;;14.50;42.24;100681.91;4971459;28;98498;-69
2023/04/26 06:07:58;;;;;;;;;;;;;;;14.68;41.70;100680.34;4943812;28;98200;-75
2023/04/26 06:10:25;;;;;;;;;;;;;;;14.89;41.96;100678.19;4940557;28;98269;-69
2023/04/26 06:12:54;;;;;;;;;;;;;;;15.08;41.96;100681.75;4922506;28;98284;-75
2023/04/26 06:15:21;;;;;;;;;;;;;;;15.30;41.64;100677.66;4920957;28;98010;-75
2023/04/26 06:17:48;;;;;;;;;;;;;;;15.50;41.71;100682.78;4925023;28;98020;-69
2023/04/26 06:20:15;;;;;;;;;;;;;;;15.71;41.37;100680.59;4939986;28;98086;-69
2023/04/26 06:22:41;;;;;;;;;;;;;;;15.94;41.41;100687.81;4926010;28;99596;-69
2023/04/26 06:25:07;;;;;;;;;;;;;;;16.08;41.42;100687.06;4923683;28;98286;-69
2023/04/26 06:27:34;;;;;;;;;;;;;;;16.43;41.30;100683.69;4939602;28;98382;-75
2023/04/26 06:30:01;;;;;;;;;;;;;;;16.69;41.20;100685.91;4922258;28;98286;-69
2023/04/26 06:32:29;;;;;;;;;;;;;;;16.94;40.93;100671.00;4918966;28;98031;-76
2023/04/26 06:34:55;;;;;;;;;;;;;;;17.07;41.01;100683.78;4925897;28;100661;-76
2023/04/26 06:37:22;;;;;;;;;;;;;;;17.43;40.84;100696.59;4922602;28;98034;-69
2023/04/26 06:39:49;;;;;;;;;;;;;;;17.69;40.65;100691.38;4924948;28;98403;-75
2023/04/26 06:42:16;;;;;;;;;;;;;;;18.14;40.58;100688.63;4923119;28;98218;-76
2023/04/26 06:44:42;;;;;;;;;;;;;;;18.37;40.47;100687.47;4924184;28;98552;-69
2023/04/26 06:47:10;;;;;;;;;;;;;;;18.94;40.18;100692.19;4941626;28;98466;-76
2023/04/26 06:49:36;;;;;;;;;;;;;;;18.58;40.84;100690.44;4926791;28;98418;-70
2023/04/26 06:52:03;;;;;;;;;;;;;;;18.61;40.96;100694.47;4943062;28;100027;-70
2023/04/26 06:54:30;;;;;;;;;;;;;;;19.45;40.18;100693.38;4938704;28;98697;-76
2023/04/26 06:56:56;;;;;;;;;;;;;;;20.02;39.78;100687.72;4934336;28;97918;-76
2023/04/26 06:59:24;;;;;;;;;;;;;;;20.28;39.82;100695.09;4941276;28;98428;-71
2023/04/26 07:01:51;;;;;;;;;;;;;;;20.89;39.29;100694.84;4950189;28;99187;-77
2023/04/26 07:04:19;;;;;;;;;;;;;;;20.53;40.20;100701.63;4935746;28;97944;-70
2023/04/26 07:06:49;;;;;;;;;;;;;;;20.72;40.05;100709.44;4925858;28;97942;-77
2023/04/26 07:09:18;;;;;;;;;;;;;;;20.52;40.37;100705.50;4934027;28;98595;-70
2023/04/26 07:11:48;;;;;;;;;;;;;;;20.19;40.76;100703.28;4960936;28;98109;-70
2023/04/26 07:14:16;;;;;;;;;;;;;;;20.05;41.14;100699.97;4957870;27;98017;-70
2023/04/26 07:16:42;;;;;;;;;;;;;;;19.84;41.23;100699.81;4955491;27;98184;-76
2023/04/26 07:19:09;;;;;;;;;;;;;;;20.28;40.50;100697.81;4962131;28;97991;-70
2023/04/26 07:21:37;;;;;;;;;;;;;;;20.26;40.75;100706.34;4944816;28;99356;-76
2023/04/26 07:24:04;;;;;;;;;;;;;;;21.04;39.91;100697.00;4944273;28;101042;-70
2023/04/26 07:26:30;;;;;;;;;;;;;;;21.03;40.07;100701.69;4960786;28;98735;-71
2023/04/26 07:28:58;;;;;;;;;;;;;;;20.70;40.72;100708.94;4946504;27;98276;-77
2023/04/26 07:31:27;;;;;;;;;;;;;;;20.25;41.39;100702.00;4960494;28;98647;-76
2023/04/26 07:33:54;;;;;;;;;;;;;;;20.09;41.29;100709.13;4960641;27;97996;-70
2023/04/26 07:36:20;;;;;;;;;;;;;;;20.59;40.61;100705.75;4951835;28;98256;-70
2023/04/26 07:38:46;;;;;;;;;;;;;;;20.39;41.03;100707.25;4961415;28;98455;-70
2023/04/26 07:41:15;;;;;;;;;;;;;;;20.83;40.44;100700.50;4941410;28;98036;-77
2023/04/26 07:43:42;;;;;;;;;;;;;;;21.61;39.65;100690.13;4944053;27;98724;-77
2023/04/26 07:46:09;;;;;;;;;;;;;;;22.26;39.33;100705.03;4960657;28;98312;-77
2023/04/26 07:48:36;;;;;;;;;;;;;;;23.41;38.09;100692.97;4959127;28;99287;-77
2023/04/26 07:51:07;;;;;;;;;;;;;;;23.77;38.37;100698.34;4971214;27;98284;-77
2023/04/26 07:53:36;;;;;;;;;;;;;;;24.93;37.49;100697.38;4961300;28;99844;-78
2023/04/26 07:56:08;;;;;;;;;;;;;;;26.02;36.81;100716.66;4961588;27;97959;-78
2023/04/26 07:58:35;;;;;;;;;;;;;;;25.39;38.03;100714.19;4975712;27;98040;-71
2023/04/26 08:01:03;;;;;;;;;;;;;;;25.02;38.55;100713.72;4944050;28;101233;-78
2023/04/26 08:03:29;;;;;;;;;;;;;;;24.38;39.79;100710.19;4959588;28;98312;-71
2023/04/26 08:05:57;;;;;;;;;;;;;;;23.81;40.13;100703.16;4960147;28;98183;-72
2023/04/26 08:08:27;;;;;;;;;;;;;;;23.35;40.37;100700.66;4971456;27;98093;-77
2023/04/26 08:10:54;;;;;;;;;;;;;;;23.01;40.85;100707.47;4956510;27;98085;-71
2023/04/26 08:13:21;;;;;;;;;;;;;;;22.74;40.73;100701.50;4978566;27;98178;-71
2023/04/26 08:15:52;;;;;;;;;;;;;;;22.94;40.76;100697.06;4945359;27;97878;-77
2023/04/26 08:18:18;;;;;;;;;;;;;;;22.21;41.46;100705.25;4962587;27;98116;-71
2023/04/26 08:20:45;;;;;;;;;;;;;;;21.84;41.47;100702.34;4957004;27;98233;-71
2023/04/26 08:23:11;;;;;;;;;;;;;;;22.57;40.63;100701.75;4957642;27;98270;-71
2023/04/26 08:25:38;;;;;;;;;;;;;;;25.35;37.54;100697.56;4954120;27;98366;-72
2023/04/26 08:28:06;;;;;;;;;;;;;;;27.59;36.10;100697.00;4945321;27;98264;-79
2023/04/26 08:30:34;;;;;;;;;;;;;;;26.50;37.95;100713.56;4956808;27;98088;-78
2023/04/26 08:33:01;;;;;;;;;;;;;;;25.25;39.43;100706.38;4946169;27;98305;-78
2023/04/26 08:35:27;;;;;;;;;;;;;;;24.43;40.48;100709.94;4944990;27;98589;-71
2023/04/26 08:37:53;;;;;;;;;;;;;;;23.83;40.84;100709.91;4963608;27;98171;-78
2023/04/26 08:40:23;;;;;;;;;;;;;;;23.30;41.43;100709.13;4937482;27;98660;-77
2023/04/26 08:42:51;;;;;;;;;;;;;;;23.15;41.11;100702.44;4954821;27;99044;-78
2023/04/26 08:45:17;;;;;;;;;;;;;;;26.08;37.74;100695.06;4945671;27;98416;-72
2023/04/26 08:47:52;;;;;;;;;;;;;;;28.46;36.19;100702.28;4947224;27;98467;-79
2023/04/26 08:50:22;;;;;;;;;;;;;;;30.77;34.35;100706.34;4958646;27;98147;-72
2023/04/26 08:52:51;;;;;;;;;;;;;;;32.70;33.89;100708.22;4963732;27;98019;-72
2023/04/26 08:55:21;;;;;;;;;;;;;;;33.22;33.94;100705.28;4945512;27;99166;-80
2023/04/26 08:57:55;;;;;;;;;;;;;;;31.03;37.10;100705.91;4977427;27;98556;-78
2023/04/26 09:00:24;;;;;;;;;;;;;;;29.62;38.53;100697.06;4958590;27;98177;-78
2023/04/26 09:02:51;;;;;;;;;;;;;;;28.52;39.25;100694.38;4957082;27;99989;-78
2023/04/26 09:05:26;;;;;;;;;;;;;;;27.57;40.01;100693.78;4957931;27;100094;-76
2023/04/26 09:08:00;;;;;;;;;;;;;;;26.71;40.70;100691.78;4962571;27;100300;-78
2023/04/26 09:10:27;;;;;;;;;;;;;;;25.96;41.08;100687.72;4936385;28;98295;-79
2023/04/26 09:12:54;;;;;;;;;;;;;;;25.28;41.63;100688.31;4959584;27;98231;-71
2023/04/26 09:15:21;;;;;;;;;;;;;;;24.69;41.87;100692.88;4955005;28;99422;-71
2023/04/26 09:17:51;;;;;;;;;;;;;;;24.22;41.96;100688.16;4971768;27;98419;-71
2023/04/26 09:20:24;;;;;;;;;;;;;;;24.38;41.57;100690.91;4956418;28;99327;-71
2023/04/26 09:22:51;;;;;;;;;;;;;;;25.43;40.05;100691.03;4973229;27;100219;-71
2023/04/26 09:25:29;;;;;;;;;;;;;;;24.83;41.06;100695.16;4954877;27;98286;-79
2023/04/26 09:27:56;;;;;;;;;;;;;;;24.35;41.29;100694.38;4943566;27;98162;-78
2023/04/26 09:30:22;;;;;;;;;;;;;;;23.75;41.94;100691.63;4967527;27;99508;-71
2023/04/26 09:33:03;;;;;;;;;;;;;;;23.21;42.08;100695.53;4951928;28;98225;-71
2023/04/26 09:35:31;;;;;;;;;;;;;;;22.67;42.35;100697.72;4972202;27;98039;-77
2023/04/26 09:38:06;;;;;;;;;;;;;;;22.24;42.55;100699.88;4960514;28;98313;-70
2023/04/26 09:40:43;;;;;;;;;;;;;;;21.88;42.80;100703.28;4954309;27;100261;-70
2023/04/26 09:43:14;;;;;;;;;;;;;;;21.66;42.54;100704.47;4942464;28;98127;-77
2023/04/26 09:45:45;;;;;;;;;;;;;;;21.64;42.35;100701.25;4975518;27;98525;-77
2023/04/26 09:48:21;;;;;;;;;;;;;;;21.73;42.08;100707.47;4975191;27;98425;-77
2023/04/26 09:50:51;;;;;;;;;;;;;;;21.53;42.07;100711.81;4971019;27;98303;-77
2023/04/26 09:53:36;;;;;;;;;;;;;;;21.34;42.25;100711.50;4970989;27;98199;-71
2023/04/26 09:56:07;;;;;;;;;;;;;;;21.33;42.11;100712.63;4978706;27;98151;-77
2023/04/26 09:58:37;;;;;;;;;;;;;;;21.62;41.58;100708.22;4951449;27;97961;-77
2023/04/26 10:01:05;;;;;;;;;;;;;;;21.68;41.45;100717.84;4940581;28;98311;-70
2023/04/26 10:03:33;;;;;;;;;;;;;;;21.67;41.71;100721.72;4938676;28;100435;-77
2023/04/26 10:06:00;;;;;;;;;;;;;;;21.83;41.16;100717.22;4948750;28;99482;-71
2023/04/26 10:08:26;;;;;;;;;;;;;;;22.38;40.67;100720.72;4979271;27;98709;-70
2023/04/26 10:10:53;;;;;;;;;;;;;;;24.38;38.41;100707.44;4964498;27;98190;-70
2023/04/26 10:13:20;;;;;;;;;;;;;;;24.05;39.49;100716.00;4943763;27;98274;-78
2023/04/26 10:15:47;;;;;;;;;;;;;;;23.55;40.40;100714.59;4966190;27;98103;-71
2023/04/26 10:18:14;;;;;;;;;;;;;;;23.23;40.72;100729.00;4948353;27;97912;-70
2023/04/26 10:20:42;;;;;;;;;;;;;;;22.97;41.01;100723.88;4950338;27;98089;-70
2023/04/26 10:23:19;;;;;;;;;;;;;;;22.75;40.95;100721.53;4965768;27;99659;-78
2023/04/26 10:25:46;;;;;;;;;;;;;;;22.58;41.31;100724.50;4949842;27;97849;-78
2023/04/26 10:28:13;;;;;;;;;;;;;;;22.55;41.16;100713.06;4949410;27;98202;-70
2023/04/26 10:30:59;;;;;;;;;;;;;;;23.08;40.23;100715.16;4963346;27;97991;-77
2023/04/26 10:33:26;;;;;;;;;;;;;;;25.10;38.18;100701.72;4967648;27;98403;-71
2023/04/26 10:36:11;;;;;;;;;;;;;;;28.36;35.05;100703.75;4965739;27;99099;-71
2023/04/26 10:39:04;;;;;;;;;;;;;;;31.18;33.45;100711.44;4976861;27;98014;-79
2023/04/26 10:41:34;;;;;;;;;;;;;;;33.10;32.63;100715.00;4962731;27;98023;-73
2023/04/26 10:44:35;;;;;;;;;;;;;;;34.95;32.14;100737.94;4968412;27;99592;-80
2023/04/26 10:47:04;;;;;;;;;;;;;;;36.97;31.44;100722.63;4969788;27;98610;-80
2023/04/26 10:49:31;;;;;;;;;;;;;;;38.43;30.69;100723.84;4965058;27;98227;-80
2023/04/26 10:52:15;;;;;;;;;;;;;;;39.74;30.63;100722.41;4944572;27;98195;-81
2023/04/26 10:54:48;;;;;;;;;;;;;;;40.03;30.98;100709.97;4947364;27;99060;-75
2023/04/26 10:57:16;;;;;;;;;;;;;;;39.41;32.53;100693.84;4960740;27;99264;-81
2023/04/26 11:00:13;;;;;;;;;;;;;;;36.83;35.48;100679.63;4945901;27;98554;-75
2023/04/26 11:02:58;;;;;;;;;;;;;;;35.48;36.71;100686.47;4975405;27;98055;-81
2023/04/26 11:05:51;;;;;;;;;;;;;;;38.12;33.80;100692.69;4961699;27;98083;-75
2023/04/26 11:08:27;;;;;;;;;;;;;;;39.58;32.73;100688.75;4958603;27;98427;-81
2023/04/26 11:11:12;;;;;;;;;;;;;;;40.21;32.57;100685.44;4934446;27;98034;-75
2023/04/26 11:13:42;;;;;;;;;;;;;;;38.36;35.04;100681.09;4981720;27;98044;-81
2023/04/26 11:16:13;;;;;;;;;;;;;;;37.27;35.88;100670.81;4947130;27;99704;-81
2023/04/26 11:18:44;;;;;;;;;;;;;;;38.78;34.41;100674.00;4959750;27;98305;-81
2023/04/26 11:21:18;;;;;;;;;;;;;;;38.29;34.56;100670.84;4949315;27;98904;-81
2023/04/26 11:23:58;;;;;;;;;;;;;;;39.02;34.22;100677.13;4945517;27;98453;-80
2023/04/26 11:26:30;;;;;;;;;;;;;;;36.47;37.09;100665.78;4946499;27;98259;-80
2023/04/26 11:29:00;;;;;;;;;;;;;;;34.90;38.62;100674.84;4949577;27;98556;-80
2023/04/26 11:31:29;;;;;;;;;;;;;;;33.67;39.63;100672.41;4962021;27;99019;-77
2023/04/26 11:34:09;;;;;;;;;;;;;;;33.35;39.44;100670.03;4940639;27;99803;-80
2023/04/26 11:36:38;;;;;;;;;;;;;;;34.80;37.05;100678.63;4963782;27;98665;-76
2023/04/26 11:39:06;;;;;;;;;;;;;;;36.05;35.87;100682.41;4944263;27;97962;-81
2023/04/26 11:41:35;;;;;;;;;;;;;;;37.08;34.62;100684.56;4949037;27;98095;-81
2023/04/26 11:44:05;;;;;;;;;;;;;;;36.60;35.52;100682.69;4962093;27;98381;-80
2023/04/26 11:46:32;;;;;;;;;;;;;;;36.14;36.30;100681.81;4978813;27;98222;-80
2023/04/26 11:48:59;;;;;;;;;;;;;;;35.15;37.31;100680.75;4944419;27;97804;-77
2023/04/26 11:51:26;;;;;;;;;;;;;;;33.99;38.46;100689.94;4966771;27;98049;-81
2023/04/26 11:53:53;;;;;;;;;;;;;;;34.74;37.30;100680.31;4962950;27;98070;-80
2023/04/26 11:56:21;;;;;;;;;;;;;;;33.59;38.77;100686.91;4963841;27;98458;-77
2023/04/26 11:58:49;;;;;;;;;;;;;;;32.59;39.26;100693.56;4946598;27;98166;-77
2023/04/26 12:01:28;;;;;;;;;;;;;;;32.83;39.10;100692.53;4963431;27;99016;-76
2023/04/26 12:03:58;;;;;;;;;;;;;;;32.22;39.07;100706.19;4962871;27;99050;-81
2023/04/26 12:06:45;;;;;;;;;;;;;;;31.47;39.85;100704.59;4950264;27;98122;-76
2023/04/26 12:09:14;;;;;;;;;;;;;;;30.72;40.28;100703.94;4974310;27;97969;-80
2023/04/26 12:11:40;;;;;;;;;;;;;;;30.13;40.52;100707.09;4957019;27;98062;-75
2023/04/26 12:14:08;;;;;;;;;;;;;;;30.63;39.79;100707.16;4965494;27;98026;-81
2023/04/26 12:16:42;;;;;;;;;;;;;;;30.53;39.78;100711.50;4948706;27;99080;-80
2023/04/26 12:19:10;;;;;;;;;;;;;;;31.32;38.60;100707.84;4939350;27;98022;-75
2023/04/26 12:21:43;;;;;;;;;;;;;;;31.23;38.58;100708.25;4965521;27;99843;-80
2023/04/26 12:24:24;;;;;;;;;;;;;;;31.46;38.46;100708.59;4976159;27;98387;-75
2023/04/26 12:26:52;;;;;;;;;;;;;;;30.98;38.99;100706.31;4960469;27;98185;-80
2023/04/26 12:29:18;;;;;;;;;;;;;;;30.77;39.35;100711.91;4979734;27;98836;-75
2023/04/26 12:31:54;;;;;;;;;;;;;;;30.54;39.41;100710.34;4961377;27;100079;-80
2023/04/26 12:34:22;;;;;;;;;;;;;;;30.64;39.39;100696.81;4960415;27;98201;-75
2023/04/26 12:36:51;;;;;;;;;;;;;;;31.39;38.29;100697.47;4945252;27;98014;-79
2023/04/26 12:39:21;;;;;;;;;;;;;;;31.53;38.02;100707.78;4957843;27;99187;-81
2023/04/26 12:41:48;;;;;;;;;;;;;;;31.99;37.84;100704.75;4964876;27;98251;-75
2023/04/26 12:44:15;;;;;;;;;;;;;;;32.17;37.74;100701.84;4962799;27;98043;-75